Terminal Aerodrome Forecast
Issued by NWS

Home | Current Version | Previous Version | Text Only | Print | Product List | Glossary On
Versions: 1 2 3 4 5 6 7 8 9 10 11 12 13
000
FTUS44 KOUN 282322
TAFWWR
TAF
KWWR 282322Z 2900/2924 09012KT P6SM BKN050
     FM290400 09012KT P6SM OVC025
      TEMPO 2904/2908 3SM -TSRA BR OVC015CB
     FM290800 08012KT P6SM OVC015
      TEMPO 2908/2912 3SM -TSRA BR OVC012CB
     FM291200 08012G18KT 5SM -TSRA BR OVC008CB
     FM291800 12011KT P6SM BKN025
      TEMPO 2921/2924 3SM TSRA OVC015CB=

USA.gov is the U.S. government's official web portal to all federal, state and local government web resources and services.